Time;durP1;ratioP1;P1;durP2;ratioP2;P2;SDS_P1;SDS_P2;PMS_P1;PMS_P2;Temp;Humidity;BMP_temperature;BMP_pressure;BME280_temperature;BME280_humidity;BME280_pressure;Samples;Min_cycle;Max_cycle;Signal;HPM_P1;HPM_P2
2021/12/14 00:01:47;;;;;;;28.58;13.48;;;;;;;;;;4977686;28;20038;-61
2021/12/14 00:04:17;;;;;;;37.70;15.13;;;;;;;;;;4978137;28;20404;-61
2021/12/14 00:06:45;;;;;;;41.05;15.88;;;;;;;;;;4977662;28;20022;-61
2021/12/14 00:09:23;;;;;;;41.50;16.33;;;;;;;;;;4978066;28;20406;-60
2021/12/14 00:17:15;;;;;;;30.98;15.50;;;;;;;;;;4977935;28;20062;-59
2021/12/14 00:19:43;;;;;;;35.78;15.77;;;;;;;;;;4980185;28;20156;-59
2021/12/14 00:24:06;;;;;;;29.48;14.60;;;;;;;;;;4977366;28;20652;-59
2021/12/14 00:25:04;;;;;;;34.88;13.38;;;;;;;;;;4977237;28;20061;-60
2021/12/14 00:27:33;;;;;;;27.55;12.70;;;;;;;;;;4977674;28;20037;-59
2021/12/14 00:30:03;;;;;;;45.28;14.02;;;;;;;;;;4976993;28;20033;-59
2021/12/14 00:32:30;;;;;;;32.47;14.70;;;;;;;;;;4973367;28;20125;-60
2021/12/14 00:35:02;;;;;;;36.85;13.82;;;;;;;;;;4977023;28;20034;-59
2021/12/14 00:37:30;;;;;;;35.10;14.52;;;;;;;;;;4977191;28;20077;-60
2021/12/14 00:39:57;;;;;;;31.77;14.13;;;;;;;;;;4977582;28;20069;-59
2021/12/14 00:42:26;;;;;;;34.78;15.20;;;;;;;;;;4975301;28;20022;-60
2021/12/14 00:44:51;;;;;;;39.35;18.80;;;;;;;;;;4976554;28;20087;-60
2021/12/14 00:47:24;;;;;;;40.03;16.67;;;;;;;;;;4975523;28;20030;-60
2021/12/14 00:53:27;;;;;;;33.05;16.00;;;;;;;;;;4976037;28;20033;-59
2021/12/14 00:55:59;;;;;;;38.50;16.92;;;;;;;;;;4977423;28;20037;-60
2021/12/14 00:58:29;;;;;;;30.55;14.20;;;;;;;;;;4976703;28;20045;-58
2021/12/14 01:00:57;;;;;;;32.47;15.13;;;;;;;;;;4962146;28;20050;-60
2021/12/14 01:03:27;;;;;;;28.15;13.77;;;;;;;;;;4973910;28;20438;-60
2021/12/14 01:05:55;;;;;;;30.42;12.98;;;;;;;;;;4976075;28;20034;-59
2021/12/14 01:08:25;;;;;;;35.08;14.07;;;;;;;;;;4962760;28;20152;-60
2021/12/14 01:10:55;;;;;;;31.33;14.07;;;;;;;;;;4983601;28;20030;-60
2021/12/14 01:13:25;;;;;;;38.15;14.68;;;;;;;;;;4981266;28;22130;-59
2021/12/14 01:18:44;;;;;;;29.65;14.50;;;;;;;;;;4976038;28;20176;-59
2021/12/14 01:21:24;;;;;;;37.83;16.48;;;;;;;;;;4990822;28;20040;-59
2021/12/14 01:24:00;;;;;;;38.70;16.50;;;;;;;;;;4975727;28;20030;-60
2021/12/14 01:26:29;;;;;;;35.38;16.02;;;;;;;;;;4977598;28;20037;-59
2021/12/14 01:28:54;;;;;;;41.63;16.05;;;;;;;;;;4975564;28;20164;-60
2021/12/14 01:31:34;;;;;;;39.45;17.17;;;;;;;;;;4981005;28;20488;-60
2021/12/14 01:34:30;;;;;;;37.20;17.00;;;;;;;;;;4991150;28;20026;-60
2021/12/14 01:37:01;;;;;;;41.58;16.27;;;;;;;;;;4971136;28;20121;-60
2021/12/14 01:42:01;;;;;;;36.88;14.80;;;;;;;;;;4975344;28;21141;-59
2021/12/14 01:44:30;;;;;;;42.00;15.32;;;;;;;;;;4975708;28;20054;-60
2021/12/14 01:46:59;;;;;;;33.40;15.02;;;;;;;;;;4992084;28;20062;-59
2021/12/14 01:49:26;;;;;;;37.05;13.60;;;;;;;;;;4976689;28;20030;-59
2021/12/14 01:51:55;;;;;;;32.92;14.43;;;;;;;;;;4976679;28;20038;-60
2021/12/14 01:54:25;;;;;;;37.10;14.85;;;;;;;;;;4989022;28;20038;-58
2021/12/14 01:56:50;;;;;;;38.50;14.90;;;;;;;;;;4981989;28;20049;-59
2021/12/14 01:59:22;;;;;;;35.28;14.77;;;;;;;;;;4977351;28;20030;-60
2021/12/14 02:01:57;;;;;;;38.17;15.43;;;;;;;;;;4976178;28;20124;-59
2021/12/14 02:04:27;;;;;;;34.88;15.20;;;;;;;;;;4983188;28;20057;-59
2021/12/14 02:07:04;;;;;;;35.75;15.70;;;;;;;;;;4982939;28;20045;-59
2021/12/14 02:09:30;;;;;;;35.80;16.92;;;;;;;;;;4981208;28;20045;-59
2021/12/14 02:12:00;;;;;;;35.63;17.77;;;;;;;;;;4983290;28;20038;-60
2021/12/14 02:14:28;;;;;;;45.95;16.35;;;;;;;;;;4967023;28;20680;-60
2021/12/14 02:16:56;;;;;;;45.05;18.95;;;;;;;;;;4982067;28;20038;-60
2021/12/14 02:19:21;;;;;;;37.28;17.02;;;;;;;;;;4983364;28;20046;-60
2021/12/14 02:21:50;;;;;;;46.70;19.70;;;;;;;;;;4980790;28;20658;-59
2021/12/14 02:24:22;;;;;;;40.30;17.80;;;;;;;;;;4980937;28;20547;-60
2021/12/14 02:26:48;;;;;;;41.22;18.05;;;;;;;;;;4978974;28;20038;-59
2021/12/14 02:29:42;;;;;;;42.90;17.38;;;;;;;;;;4977478;28;20042;-59
2021/12/14 02:32:12;;;;;;;37.72;17.13;;;;;;;;;;4987754;28;20042;-60
2021/12/14 02:34:41;;;;;;;42.92;17.55;;;;;;;;;;4981769;28;20029;-60
2021/12/14 02:37:07;;;;;;;39.35;17.40;;;;;;;;;;4979065;28;20034;-60
2021/12/14 02:39:48;;;;;;;46.38;18.60;;;;;;;;;;4982962;28;20108;-61
2021/12/14 02:42:24;;;;;;;39.17;17.58;;;;;;;;;;4981767;28;20042;-60
2021/12/14 02:44:52;;;;;;;44.33;20.40;;;;;;;;;;4981615;28;20469;-60
2021/12/14 02:47:21;;;;;;;50.33;20.73;;;;;;;;;;4979231;28;20101;-60
2021/12/14 02:49:48;;;;;;;47.28;19.35;;;;;;;;;;4990098;28;20042;-59
2021/12/14 02:52:25;;;;;;;52.35;21.20;;;;;;;;;;4988863;28;20033;-59
2021/12/14 02:55:00;;;;;;;55.03;23.20;;;;;;;;;;4985226;28;20122;-59
2021/12/14 02:57:30;;;;;;;53.30;22.13;;;;;;;;;;4980241;28;22183;-59
2021/12/14 02:59:59;;;;;;;50.03;22.83;;;;;;;;;;4982330;28;20046;-60
2021/12/14 03:02:27;;;;;;;53.72;22.40;;;;;;;;;;4983621;28;20172;-58
2021/12/14 03:05:00;;;;;;;51.55;22.38;;;;;;;;;;4983004;28;20062;-59
2021/12/14 03:07:31;;;;;;;51.90;21.35;;;;;;;;;;4980749;28;20040;-59
2021/12/14 03:12:52;;;;;;;48.00;20.60;;;;;;;;;;4965801;28;20042;-59
2021/12/14 03:15:22;;;;;;;48.50;23.02;;;;;;;;;;4973095;28;20126;-59
2021/12/14 03:17:52;;;;;;;48.03;21.48;;;;;;;;;;4977810;28;20044;-59
2021/12/14 03:20:20;;;;;;;48.65;21.10;;;;;;;;;;4978629;28;20034;-59
2021/12/14 03:22:45;;;;;;;53.00;22.55;;;;;;;;;;4979771;28;20162;-59
2021/12/14 03:25:15;;;;;;;47.20;20.20;;;;;;;;;;4977407;28;21327;-59
2021/12/14 03:27:45;;;;;;;51.35;21.10;;;;;;;;;;4977944;28;20161;-59
2021/12/14 03:30:21;;;;;;;44.80;19.95;;;;;;;;;;4979204;28;20030;-59
2021/12/14 03:32:47;;;;;;;54.53;22.13;;;;;;;;;;4986569;28;20056;-59
2021/12/14 03:35:13;;;;;;;51.03;19.15;;;;;;;;;;4975667;28;20610;-59
2021/12/14 03:37:41;;;;;;;49.35;19.98;;;;;;;;;;4980713;28;20218;-59
2021/12/14 03:40:07;;;;;;;51.95;20.52;;;;;;;;;;4980815;28;20522;-59
2021/12/14 03:42:37;;;;;;;49.67;20.48;;;;;;;;;;4978962;28;20037;-59
2021/12/14 03:45:15;;;;;;;45.45;18.55;;;;;;;;;;4979828;28;20068;-59
2021/12/14 03:47:45;;;;;;;48.63;20.17;;;;;;;;;;4969328;28;20721;-59
2021/12/14 03:50:18;;;;;;;53.03;21.67;;;;;;;;;;4980303;28;20171;-59
2021/12/14 03:52:48;;;;;;;48.80;20.25;;;;;;;;;;4978542;28;20038;-60
2021/12/14 03:55:16;;;;;;;51.50;20.95;;;;;;;;;;4979121;28;20052;-60
2021/12/14 03:57:45;;;;;;;53.30;20.30;;;;;;;;;;4979311;28;20034;-59
2021/12/14 04:00:17;;;;;;;50.35;20.33;;;;;;;;;;4980544;28;20119;-60
2021/12/14 04:02:46;;;;;;;46.78;20.17;;;;;;;;;;4979623;28;20152;-58
2021/12/14 04:05:14;;;;;;;54.30;20.48;;;;;;;;;;4980415;28;20193;-59
2021/12/14 04:07:41;;;;;;;52.55;20.40;;;;;;;;;;4980503;28;20038;-59
2021/12/14 04:10:14;;;;;;;44.72;19.73;;;;;;;;;;4977216;28;20042;-58
2021/12/14 04:12:42;;;;;;;55.58;22.45;;;;;;;;;;4976957;28;20563;-59
2021/12/14 04:15:12;;;;;;;50.28;19.95;;;;;;;;;;4975406;28;20054;-60
2021/12/14 04:17:41;;;;;;;54.58;21.55;;;;;;;;;;4976685;28;20057;-60
2021/12/14 04:20:21;;;;;;;50.83;19.20;;;;;;;;;;4978871;28;21986;-58
2021/12/14 04:22:50;;;;;;;56.10;22.80;;;;;;;;;;4991703;28;20030;-59
2021/12/14 04:25:20;;;;;;;50.35;19.83;;;;;;;;;;4974615;28;20117;-60
2021/12/14 04:27:51;;;;;;;45.35;19.90;;;;;;;;;;4975806;28;20056;-59
2021/12/14 04:30:17;;;;;;;51.03;20.10;;;;;;;;;;4977281;28;20042;-59
2021/12/14 04:32:49;;;;;;;48.95;19.30;;;;;;;;;;4977427;28;21066;-59
2021/12/14 04:35:18;;;;;;;53.63;20.02;;;;;;;;;;4977723;28;20704;-60
2021/12/14 04:37:47;;;;;;;42.97;19.35;;;;;;;;;;4984781;28;20079;-61
2021/12/14 04:51:54;;;;;;;54.10;20.35;;;;;;;;;;4975739;28;20064;-61
2021/12/14 04:54:18;;;;;;;54.88;20.98;;;;;;;;;;4975665;28;20065;-59
2021/12/14 04:56:45;;;;;;;55.50;21.30;;;;;;;;;;4959998;28;20136;-60
2021/12/14 04:59:13;;;;;;;51.10;20.92;;;;;;;;;;4977579;28;20088;-60
2021/12/14 05:01:40;;;;;;;45.72;19.92;;;;;;;;;;4977869;28;20031;-60
2021/12/14 05:04:07;;;;;;;61.47;21.80;;;;;;;;;;4977345;28;20045;-60
2021/12/14 05:07:26;;;;;;;53.25;20.42;;;;;;;;;;4975503;28;20034;-60
2021/12/14 05:09:34;;;;;;;57.85;21.33;;;;;;;;;;4976040;28;20263;-58
2021/12/14 05:12:13;;;;;;;59.97;21.48;;;;;;;;;;4962729;28;20073;-59
2021/12/14 05:14:42;;;;;;;64.05;22.27;;;;;;;;;;4973612;28;20219;-60
2021/12/14 05:17:12;;;;;;;55.13;22.05;;;;;;;;;;4989209;28;20538;-59
2021/12/14 05:19:41;;;;;;;50.70;22.63;;;;;;;;;;4976054;28;20044;-60
2021/12/14 05:22:11;;;;;;;52.88;20.65;;;;;;;;;;4981287;28;20129;-60
2021/12/14 05:24:40;;;;;;;57.90;21.67;;;;;;;;;;4977243;28;20312;-60
2021/12/14 05:27:07;;;;;;;57.65;22.40;;;;;;;;;;4965428;28;20026;-59
2021/12/14 05:29:41;;;;;;;57.25;22.10;;;;;;;;;;4977217;28;20033;-59
2021/12/14 05:32:10;;;;;;;56.38;20.75;;;;;;;;;;4977274;28;20118;-60
2021/12/14 05:34:38;;;;;;;57.72;21.45;;;;;;;;;;4976744;28;20034;-59
2021/12/14 05:37:08;;;;;;;55.50;20.58;;;;;;;;;;4976160;28;20042;-59
2021/12/14 05:39:50;;;;;;;55.80;20.70;;;;;;;;;;4976957;28;20034;-59
2021/12/14 05:45:07;;;;;;;54.97;20.67;;;;;;;;;;4974928;28;20052;-59
2021/12/14 05:47:41;;;;;;;54.80;21.00;;;;;;;;;;4975214;28;20030;-60
2021/12/14 05:50:07;;;;;;;58.63;20.95;;;;;;;;;;4975915;28;20042;-58
2021/12/14 05:52:36;;;;;;;62.92;23.60;;;;;;;;;;4976815;28;20048;-58
2021/12/14 05:55:04;;;;;;;52.78;20.98;;;;;;;;;;4976749;28;20038;-60
2021/12/14 05:57:33;;;;;;;60.78;23.58;;;;;;;;;;4959046;28;20073;-59
2021/12/14 05:59:58;;;;;;;55.70;20.85;;;;;;;;;;4982043;28;20481;-58
2021/12/14 06:02:26;;;;;;;59.88;22.00;;;;;;;;;;4976454;28;20034;-60
2021/12/14 06:04:54;;;;;;;61.22;22.65;;;;;;;;;;4976556;28;20037;-59
2021/12/14 06:07:22;;;;;;;57.00;22.58;;;;;;;;;;4960746;28;20031;-59
2021/12/14 06:09:56;;;;;;;56.40;22.50;;;;;;;;;;4975109;28;20046;-58
2021/12/14 06:12:27;;;;;;;58.50;22.08;;;;;;;;;;4977137;28;20069;-58
2021/12/14 06:15:00;;;;;;;59.92;23.48;;;;;;;;;;4975249;28;20038;-58
2021/12/14 06:17:32;;;;;;;62.83;22.50;;;;;;;;;;4975074;28;20034;-58
2021/12/14 06:19:59;;;;;;;56.65;22.45;;;;;;;;;;4977256;28;21896;-58
2021/12/14 06:22:27;;;;;;;62.47;23.00;;;;;;;;;;4974155;28;20033;-60
2021/12/14 06:24:57;;;;;;;67.60;23.35;;;;;;;;;;4979948;28;20156;-59
2021/12/14 06:27:25;;;;;;;63.17;22.77;;;;;;;;;;4976477;28;20038;-60
2021/12/14 06:29:54;;;;;;;68.68;23.25;;;;;;;;;;4976439;28;20073;-59
2021/12/14 06:32:28;;;;;;;59.22;23.10;;;;;;;;;;4976971;28;20026;-59
2021/12/14 06:34:58;;;;;;;64.03;24.58;;;;;;;;;;4973939;28;20043;-59
2021/12/14 06:40:11;;;;;;;63.80;24.10;;;;;;;;;;4975001;28;20046;-61
2021/12/14 06:42:43;;;;;;;65.18;24.13;;;;;;;;;;4974561;28;20042;-58
2021/12/14 06:45:11;;;;;;;65.80;22.48;;;;;;;;;;4977164;28;20078;-59
2021/12/14 06:47:42;;;;;;;56.28;22.02;;;;;;;;;;4975149;28;20050;-60
2021/12/14 06:50:15;;;;;;;61.63;24.10;;;;;;;;;;4992334;28;20026;-59
2021/12/14 06:52:55;;;;;;;64.38;21.92;;;;;;;;;;4984546;28;20042;-59
2021/12/14 06:55:24;;;;;;;51.95;22.92;;;;;;;;;;4980625;28;20268;-58
2021/12/14 06:57:52;;;;;;;63.42;23.42;;;;;;;;;;4982036;28;20034;-60
2021/12/14 07:00:18;;;;;;;63.90;23.48;;;;;;;;;;4979883;28;20087;-59
2021/12/14 07:02:44;;;;;;;73.85;22.33;;;;;;;;;;4981887;28;20951;-60
2021/12/14 07:05:20;;;;;;;64.00;22.73;;;;;;;;;;4984644;28;20038;-59
2021/12/14 07:07:47;;;;;;;68.00;24.15;;;;;;;;;;4980328;28;20465;-60
2021/12/14 07:10:12;;;;;;;67.68;22.65;;;;;;;;;;4988514;28;20117;-59
2021/12/14 07:12:44;;;;;;;70.03;23.60;;;;;;;;;;4976983;28;20022;-59
2021/12/14 07:15:12;;;;;;;64.05;23.85;;;;;;;;;;4965584;28;20038;-58
2021/12/14 07:17:43;;;;;;;66.43;24.77;;;;;;;;;;4980317;28;20580;-60
2021/12/14 07:20:11;;;;;;;63.28;23.60;;;;;;;;;;4979812;28;20053;-59
2021/12/14 07:22:37;;;;;;;67.75;22.98;;;;;;;;;;4986080;28;20563;-59
2021/12/14 07:25:06;;;;;;;71.80;24.17;;;;;;;;;;4978174;28;20034;-60
2021/12/14 07:27:40;;;;;;;64.93;22.98;;;;;;;;;;4983943;28;20037;-60
2021/12/14 07:30:10;;;;;;;72.15;22.88;;;;;;;;;;4979103;28;20628;-59
2021/12/14 07:32:41;;;;;;;67.38;24.40;;;;;;;;;;4976199;28;20030;-59
2021/12/14 07:35:24;;;;;;;63.97;22.85;;;;;;;;;;4979432;28;20964;-59
2021/12/14 07:37:55;;;;;;;64.43;23.45;;;;;;;;;;4968651;28;20042;-59
2021/12/14 07:40:24;;;;;;;69.20;23.25;;;;;;;;;;4981201;28;20030;-60
2021/12/14 07:43:13;;;;;;;65.70;24.05;;;;;;;;;;4983064;28;21995;-60
2021/12/14 07:45:42;;;;;;;70.00;23.77;;;;;;;;;;4982059;28;20761;-61
2021/12/14 07:48:10;;;;;;;69.05;23.30;;;;;;;;;;4987024;28;20038;-59
2021/12/14 07:50:42;;;;;;;79.10;25.35;;;;;;;;;;4979216;28;20042;-60
2021/12/14 07:53:08;;;;;;;69.72;23.58;;;;;;;;;;4978321;28;20048;-60
2021/12/14 07:55:37;;;;;;;69.10;24.17;;;;;;;;;;4973531;28;20042;-60
2021/12/14 07:58:07;;;;;;;76.00;25.92;;;;;;;;;;4977257;28;20083;-59
2021/12/14 08:00:40;;;;;;;70.10;24.17;;;;;;;;;;4977365;28;20037;-60
2021/12/14 08:03:07;;;;;;;69.07;23.55;;;;;;;;;;4978736;28;21081;-61
2021/12/14 08:05:36;;;;;;;65.97;22.30;;;;;;;;;;4977967;28;20104;-59
2021/12/14 08:08:09;;;;;;;78.07;23.63;;;;;;;;;;4994840;28;20042;-59
2021/12/14 08:10:39;;;;;;;67.10;23.20;;;;;;;;;;4981974;28;24452;-59
2021/12/14 08:13:15;;;;;;;74.78;23.42;;;;;;;;;;4975104;28;20391;-61
2021/12/14 08:15:43;;;;;;;70.75;23.50;;;;;;;;;;4974631;28;20129;-60
2021/12/14 08:18:17;;;;;;;76.65;24.83;;;;;;;;;;4976492;28;20401;-59
2021/12/14 08:20:52;;;;;;;62.80;23.20;;;;;;;;;;4975860;28;20694;-60
2021/12/14 08:23:29;;;;;;;72.43;24.55;;;;;;;;;;4974229;28;22000;-59
2021/12/14 08:25:59;;;;;;;71.65;22.77;;;;;;;;;;4977051;28;20033;-60
2021/12/14 08:28:26;;;;;;;64.20;23.77;;;;;;;;;;4975413;28;20097;-59
2021/12/14 08:30:58;;;;;;;76.88;24.55;;;;;;;;;;4976479;28;20423;-59
2021/12/14 08:33:27;;;;;;;67.32;23.42;;;;;;;;;;4971823;28;21920;-59
2021/12/14 08:36:00;;;;;;;62.97;23.55;;;;;;;;;;4975849;28;20026;-59
2021/12/14 08:38:32;;;;;;;64.03;24.25;;;;;;;;;;4977660;28;20033;-59
2021/12/14 08:41:01;;;;;;;59.33;21.85;;;;;;;;;;4978278;28;20077;-59
2021/12/14 08:43:33;;;;;;;64.35;24.27;;;;;;;;;;4972208;28;20030;-59
2021/12/14 08:45:58;;;;;;;65.97;23.77;;;;;;;;;;4974475;28;20073;-58
2021/12/14 08:48:31;;;;;;;71.13;21.95;;;;;;;;;;4975051;28;20038;-59
2021/12/14 08:51:04;;;;;;;68.78;22.98;;;;;;;;;;4978449;28;20124;-59
2021/12/14 08:53:33;;;;;;;70.82;24.23;;;;;;;;;;4973872;28;20152;-59
2021/12/14 08:56:07;;;;;;;63.25;22.63;;;;;;;;;;4975623;28;20512;-60
2021/12/14 08:58:35;;;;;;;70.95;24.20;;;;;;;;;;4976695;28;20373;-59
2021/12/14 09:01:09;;;;;;;68.43;23.65;;;;;;;;;;4977187;28;20034;-58
2021/12/14 09:03:39;;;;;;;73.45;23.15;;;;;;;;;;4974079;28;20076;-60
2021/12/14 09:06:10;;;;;;;64.35;23.30;;;;;;;;;;4976206;28;20065;-59
2021/12/14 09:08:38;;;;;;;62.70;21.48;;;;;;;;;;4964039;28;20034;-60
2021/12/14 09:11:04;;;;;;;59.90;22.05;;;;;;;;;;4986206;28;20045;-58
2021/12/14 09:13:33;;;;;;;71.15;23.10;;;;;;;;;;4975108;28;20029;-58
2021/12/14 09:16:01;;;;;;;72.43;23.27;;;;;;;;;;4971642;28;20080;-59
2021/12/14 09:18:31;;;;;;;61.05;21.65;;;;;;;;;;4975514;28;20022;-59
2021/12/14 09:21:04;;;;;;;67.85;23.90;;;;;;;;;;4975111;28;20153;-58
2021/12/14 09:23:36;;;;;;;59.78;23.08;;;;;;;;;;4975808;28;20117;-58
2021/12/14 09:26:08;;;;;;;61.05;20.90;;;;;;;;;;4977478;28;20041;-59
2021/12/14 09:28:36;;;;;;;60.28;22.67;;;;;;;;;;4972188;28;20069;-58
2021/12/14 09:31:07;;;;;;;67.85;21.05;;;;;;;;;;4975920;28;20030;-60
2021/12/14 09:33:39;;;;;;;54.42;20.70;;;;;;;;;;4974662;28;20037;-58
2021/12/14 09:36:12;;;;;;;61.08;22.20;;;;;;;;;;4978669;28;22056;-59
2021/12/14 09:38:41;;;;;;;56.47;21.80;;;;;;;;;;4976115;28;22741;-59
2021/12/14 09:41:11;;;;;;;57.90;20.75;;;;;;;;;;4976970;28;20033;-60
2021/12/14 09:43:40;;;;;;;58.42;21.20;;;;;;;;;;4977338;28;20042;-60
2021/12/14 09:46:06;;;;;;;59.42;21.95;;;;;;;;;;4975693;28;20070;-58
2021/12/14 09:48:34;;;;;;;52.45;21.52;;;;;;;;;;4971117;28;20164;-59
2021/12/14 09:51:08;;;;;;;61.83;21.98;;;;;;;;;;4979226;28;21037;-60
2021/12/14 09:53:34;;;;;;;65.18;21.85;;;;;;;;;;4973217;28;20085;-60
2021/12/14 09:56:00;;;;;;;53.85;21.02;;;;;;;;;;4974351;28;20100;-60
2021/12/14 09:58:34;;;;;;;52.08;20.17;;;;;;;;;;4974802;28;22066;-58
2021/12/14 10:01:00;;;;;;;51.33;21.17;;;;;;;;;;4975176;28;20437;-61
2021/12/14 10:03:26;;;;;;;59.58;19.75;;;;;;;;;;4975023;28;20058;-59
2021/12/14 10:05:55;;;;;;;46.72;18.63;;;;;;;;;;4975278;28;20061;-61
2021/12/14 10:08:25;;;;;;;50.30;20.23;;;;;;;;;;4972540;28;20030;-58
2021/12/14 10:11:00;;;;;;;57.90;21.85;;;;;;;;;;4976972;28;20030;-59
2021/12/14 10:13:31;;;;;;;47.63;20.60;;;;;;;;;;4969246;28;20038;-58
2021/12/14 10:15:59;;;;;;;56.83;18.52;;;;;;;;;;4975787;28;20029;-58
2021/12/14 10:18:36;;;;;;;45.33;18.77;;;;;;;;;;4973363;28;20038;-58
2021/12/14 10:21:03;;;;;;;52.75;21.27;;;;;;;;;;4974732;28;20038;-59
2021/12/14 10:23:33;;;;;;;51.60;21.00;;;;;;;;;;4977169;28;20069;-61
2021/12/14 10:25:59;;;;;;;51.15;18.88;;;;;;;;;;4978131;28;20045;-59
2021/12/14 10:28:26;;;;;;;59.42;21.42;;;;;;;;;;4971534;28;20026;-58
2021/12/14 10:30:57;;;;;;;45.70;19.33;;;;;;;;;;4978039;28;20116;-59
2021/12/14 10:33:24;;;;;;;52.38;20.88;;;;;;;;;;4976838;28;20062;-60
2021/12/14 10:35:56;;;;;;;59.92;20.05;;;;;;;;;;4979130;28;20557;-60
2021/12/14 10:38:29;;;;;;;51.58;19.00;;;;;;;;;;4974018;28;20034;-58
2021/12/14 10:43:47;;;;;;;57.20;19.15;;;;;;;;;;4978489;28;20045;-59
2021/12/14 10:46:27;;;;;;;46.70;18.90;;;;;;;;;;4979509;28;20046;-59
2021/12/14 10:48:54;;;;;;;45.50;17.75;;;;;;;;;;4975700;28;20044;-59
2021/12/14 10:51:23;;;;;;;43.70;17.58;;;;;;;;;;4974316;28;20034;-59
2021/12/14 10:53:50;;;;;;;43.72;17.95;;;;;;;;;;4978766;28;20042;-59
2021/12/14 10:56:22;;;;;;;53.35;20.52;;;;;;;;;;4978860;28;20038;-60
2021/12/14 10:58:49;;;;;;;131.98;57.60;;;;;;;;;;4978998;28;20084;-60
2021/12/14 11:01:19;;;;;;;56.25;22.48;;;;;;;;;;4975523;28;20042;-59
2021/12/14 11:03:48;;;;;;;42.67;18.15;;;;;;;;;;4980076;28;20041;-59
2021/12/14 11:06:16;;;;;;;46.25;19.10;;;;;;;;;;4991108;28;20034;-59
2021/12/14 11:11:42;;;;;;;42.60;16.67;;;;;;;;;;4978211;28;20023;-60
2021/12/14 11:14:12;;;;;;;41.85;16.30;;;;;;;;;;4978720;28;20038;-60
2021/12/14 11:19:31;;;;;;;43.75;17.95;;;;;;;;;;4978335;28;20040;-60
2021/12/14 11:22:11;;;;;;;38.63;16.27;;;;;;;;;;4963519;28;20045;-60
2021/12/14 11:24:41;;;;;;;39.63;15.57;;;;;;;;;;4976236;28;20066;-62
2021/12/14 11:27:12;;;;;;;43.97;16.52;;;;;;;;;;4976152;28;20096;-61
2021/12/14 11:29:40;;;;;;;37.35;15.45;;;;;;;;;;4977841;28;20065;-60
2021/12/14 11:32:07;;;;;;;37.40;14.88;;;;;;;;;;4976465;28;20053;-60
2021/12/14 11:34:36;;;;;;;33.78;14.40;;;;;;;;;;4960856;28;20042;-59
2021/12/14 11:37:08;;;;;;;37.38;16.73;;;;;;;;;;4976702;28;20662;-60
2021/12/14 11:39:43;;;;;;;44.35;16.00;;;;;;;;;;4976038;28;20034;-58
2021/12/14 11:45:48;;;;;;;39.05;13.90;;;;;;;;;;4977882;28;20188;-60
2021/12/14 11:48:26;;;;;;;34.13;14.95;;;;;;;;;;4977571;28;20030;-58
2021/12/14 11:50:58;;;;;;;32.47;14.68;;;;;;;;;;4982366;28;20058;-60
2021/12/14 11:53:26;;;;;;;39.60;15.25;;;;;;;;;;4976848;28;20034;-60
2021/12/14 11:55:56;;;;;;;31.13;13.60;;;;;;;;;;4974116;28;20073;-61
2021/12/14 11:58:30;;;;;;;36.63;15.30;;;;;;;;;;4980487;28;20434;-59
2021/12/14 12:01:04;;;;;;;34.40;13.57;;;;;;;;;;4974605;28;20030;-59
2021/12/14 12:03:32;;;;;;;33.65;14.73;;;;;;;;;;4975334;28;20038;-59
2021/12/14 12:06:42;;;;;;;35.92;13.35;;;;;;;;;;4977395;28;20053;-60
2021/12/14 12:09:29;;;;;;;29.80;12.02;;;;;;;;;;4978719;28;20022;-59
2021/12/14 12:12:15;;;;;;;31.90;12.65;;;;;;;;;;4990816;28;20068;-59
2021/12/14 12:15:01;;;;;;;27.15;11.85;;;;;;;;;;4961152;28;20170;-59
2021/12/14 12:17:44;;;;;;;37.08;11.25;;;;;;;;;;4976876;28;22058;-61
2021/12/14 12:20:28;;;;;;;25.27;10.70;;;;;;;;;;4976599;28;20101;-59
2021/12/14 12:23:01;;;;;;;23.92;10.93;;;;;;;;;;4976325;28;20042;-58
2021/12/14 12:25:29;;;;;;;28.85;12.27;;;;;;;;;;4990802;28;20070;-59
2021/12/14 12:27:59;;;;;;;27.98;11.45;;;;;;;;;;4976359;28;20418;-59
2021/12/14 12:32:58;;;;;;;24.65;9.52;;;;;;;;;;4975706;28;20041;-59
2021/12/14 12:35:34;;;;;;;19.38;9.40;;;;;;;;;;4976324;28;20037;-59
2021/12/14 12:37:59;;;;;;;;;;;;;;;;;;4976181;28;20113;-59
2021/12/14 12:40:37;;;;;;;18.90;8.82;;;;;;;;;;4974875;28;19971;-60
2021/12/14 12:43:13;;;;;;;20.75;8.80;;;;;;;;;;4963861;28;20063;-60
2021/12/14 12:45:53;;;;;;;20.90;8.40;;;;;;;;;;4975479;28;20046;-60
2021/12/14 12:48:38;;;;;;;21.23;8.90;;;;;;;;;;4973676;28;20041;-59
2021/12/14 12:51:06;;;;;;;18.15;8.70;;;;;;;;;;4976452;28;20034;-59
2021/12/14 12:53:32;;;;;;;15.80;6.78;;;;;;;;;;4977036;28;20505;-59
2021/12/14 12:56:20;;;;;;;20.42;8.00;;;;;;;;;;4975586;28;20042;-59
2021/12/14 12:58:53;;;;;;;18.40;8.68;;;;;;;;;;4975940;28;20088;-59
2021/12/14 13:01:24;;;;;;;18.92;8.20;;;;;;;;;;4976595;28;20046;-59
2021/12/14 13:03:50;;;;;;;19.65;7.47;;;;;;;;;;4990599;28;20125;-58
2021/12/14 13:06:19;;;;;;;18.95;7.70;;;;;;;;;;4976306;28;20042;-58
2021/12/14 13:08:51;;;;;;;17.92;8.45;;;;;;;;;;4990898;28;20046;-60
2021/12/14 13:11:18;;;;;;;21.08;8.88;;;;;;;;;;4976032;28;20041;-60
2021/12/14 13:13:49;;;;;;;19.33;8.77;;;;;;;;;;4976090;28;20615;-58
2021/12/14 13:16:21;;;;;;;19.17;8.35;;;;;;;;;;4976369;28;20029;-58
2021/12/14 13:18:46;;;;;;;23.40;8.35;;;;;;;;;;4975344;28;20038;-60
2021/12/14 13:21:23;;;;;;;18.27;7.10;;;;;;;;;;4978942;28;20033;-59
2021/12/14 13:23:51;;;;;;;20.70;8.77;;;;;;;;;;4979591;28;20494;-59
2021/12/14 13:26:20;;;;;;;14.93;6.70;;;;;;;;;;4975916;28;20042;-59
2021/12/14 13:28:46;;;;;;;17.40;7.85;;;;;;;;;;4979153;28;20026;-58
2021/12/14 13:31:27;;;;;;;16.63;7.28;;;;;;;;;;4975386;28;20069;-59
2021/12/14 13:33:55;;;;;;;18.15;7.07;;;;;;;;;;4974114;28;20048;-58
2021/12/14 13:36:20;;;;;;;17.60;7.03;;;;;;;;;;4973568;28;20133;-58
2021/12/14 13:38:50;;;;;;;17.67;7.32;;;;;;;;;;4974104;28;20127;-59
2021/12/14 13:41:28;;;;;;;16.23;6.53;;;;;;;;;;4981264;28;22186;-59
2021/12/14 13:43:56;;;;;;;16.90;7.75;;;;;;;;;;4976256;28;20389;-59
2021/12/14 13:46:26;;;;;;;16.48;7.80;;;;;;;;;;4975837;28;20141;-59
2021/12/14 13:48:51;;;;;;;22.55;8.65;;;;;;;;;;4972792;28;20046;-59
2021/12/14 13:51:18;;;;;;;15.75;7.82;;;;;;;;;;4981215;28;20100;-59
2021/12/14 13:53:45;;;;;;;21.00;8.63;;;;;;;;;;4975810;28;20034;-58
2021/12/14 13:56:20;;;;;;;26.02;9.15;;;;;;;;;;4972242;28;20482;-58
2021/12/14 13:58:51;;;;;;;23.83;9.07;;;;;;;;;;4990868;28;20034;-59
2021/12/14 14:01:27;;;;;;;24.30;8.65;;;;;;;;;;4976387;28;20569;-59
2021/12/14 14:03:57;;;;;;;20.77;8.70;;;;;;;;;;4975069;28;20482;-59
2021/12/14 14:06:22;;;;;;;19.70;8.65;;;;;;;;;;4973471;28;20974;-58
2021/12/14 14:08:57;;;;;;;24.38;9.02;;;;;;;;;;4975121;28;20034;-59
2021/12/14 14:11:23;;;;;;;24.70;9.38;;;;;;;;;;4972191;28;20049;-59
2021/12/14 14:13:52;;;;;;;29.50;10.55;;;;;;;;;;4977213;28;20765;-59
2021/12/14 14:16:24;;;;;;;25.55;9.35;;;;;;;;;;4975635;28;20037;-59
2021/12/14 14:18:54;;;;;;;22.67;8.93;;;;;;;;;;4960497;28;20041;-58
2021/12/14 14:21:30;;;;;;;20.25;8.65;;;;;;;;;;4975745;28;20271;-59
2021/12/14 14:23:58;;;;;;;24.58;9.15;;;;;;;;;;4975743;28;20030;-59
2021/12/14 14:26:38;;;;;;;25.45;9.77;;;;;;;;;;4981363;28;21001;-59
2021/12/14 14:29:08;;;;;;;30.45;9.93;;;;;;;;;;4974677;28;20058;-59
2021/12/14 14:31:43;;;;;;;23.90;10.18;;;;;;;;;;4971240;28;20044;-59
2021/12/14 14:34:29;;;;;;;27.55;10.30;;;;;;;;;;4982712;28;20038;-57
2021/12/14 14:37:06;;;;;;;26.52;10.32;;;;;;;;;;4970064;28;20107;-58
2021/12/14 14:39:41;;;;;;;36.85;10.40;;;;;;;;;;4975646;28;22032;-58
2021/12/14 14:42:12;;;;;;;29.35;9.80;;;;;;;;;;4989572;28;20046;-60
2021/12/14 14:44:43;;;;;;;29.02;10.77;;;;;;;;;;4974514;28;20389;-60
2021/12/14 14:47:08;;;;;;;29.25;9.80;;;;;;;;;;4972623;28;20049;-58
2021/12/14 14:49:36;;;;;;;23.92;9.63;;;;;;;;;;4980179;28;20242;-59
2021/12/14 14:52:04;;;;;;;23.45;9.50;;;;;;;;;;4974584;28;20034;-59
2021/12/14 14:54:41;;;;;;;30.48;9.65;;;;;;;;;;4974473;28;20026;-59
2021/12/14 14:57:09;;;;;;;20.35;9.00;;;;;;;;;;4972464;28;20037;-59
2021/12/14 14:59:34;;;;;;;20.98;9.15;;;;;;;;;;4976305;28;20121;-59
2021/12/14 15:02:05;;;;;;;25.10;9.45;;;;;;;;;;4973463;28;20037;-59
2021/12/14 15:04:54;;;;;;;21.95;8.73;;;;;;;;;;4971778;28;20034;-59
2021/12/14 15:07:20;;;;;;;30.70;9.57;;;;;;;;;;4974218;28;20174;-59
2021/12/14 15:10:07;;;;;;;27.45;9.65;;;;;;;;;;4974783;28;20180;-59
2021/12/14 15:12:37;;;;;;;29.20;10.18;;;;;;;;;;4978276;28;20223;-59
2021/12/14 15:15:14;;;;;;;26.60;10.95;;;;;;;;;;4992957;28;20042;-59
2021/12/14 15:17:47;;;;;;;33.50;12.57;;;;;;;;;;4977072;28;20049;-58
2021/12/14 15:20:26;;;;;;;30.88;11.63;;;;;;;;;;4982186;28;20124;-59
2021/12/14 15:23:00;;;;;;;29.77;11.73;;;;;;;;;;4977602;28;20036;-59
2021/12/14 15:25:29;;;;;;;31.27;11.25;;;;;;;;;;4982419;28;20037;-58
2021/12/14 15:28:01;;;;;;;32.80;11.30;;;;;;;;;;4977402;28;20034;-59
2021/12/14 15:30:28;;;;;;;31.73;10.38;;;;;;;;;;4976819;28;20034;-58